createdAt,value
2022-10-12T00:01:14.258Z,14.21
2022-10-12T00:03:42.386Z,14.19
2022-10-12T00:06:15.196Z,14.18
2022-10-12T00:08:45.141Z,14.17
2022-10-12T00:11:16.590Z,14.16
2022-10-12T00:13:44.805Z,14.13
2022-10-12T00:16:14.885Z,14.08
2022-10-12T00:18:43.502Z,14.05
2022-10-12T00:21:14.222Z,14.01
2022-10-12T00:23:43.307Z,13.97
2022-10-12T00:26:16.459Z,13.94
2022-10-12T00:28:44.962Z,13.91
2022-10-12T00:31:15.658Z,13.87
2022-10-12T00:33:44.682Z,13.85
2022-10-12T00:36:26.059Z,13.82
2022-10-12T00:38:55.374Z,13.81
2022-10-12T00:41:30.603Z,13.78
2022-10-12T00:43:59.165Z,13.75
2022-10-12T00:46:42.460Z,13.72
2022-10-12T00:49:15.657Z,13.71
2022-10-12T00:51:48.944Z,13.69
2022-10-12T00:54:24.850Z,13.67
2022-10-12T00:56:54.262Z,13.64
2022-10-12T00:59:28.461Z,13.63
2022-10-12T01:01:56.589Z,13.63
2022-10-12T01:04:25.272Z,13.61
2022-10-12T01:06:53.448Z,13.58
2022-10-12T01:09:22.134Z,13.55
2022-10-12T01:11:50.205Z,13.54
2022-10-12T01:14:17.968Z,13.51
2022-10-12T01:17:14.068Z,13.49
2022-10-12T01:20:20.058Z,13.46
2022-10-12T01:23:17.736Z,13.45
2022-10-12T01:26:27.167Z,13.41
2022-10-12T01:28:55.091Z,13.38
2022-10-12T01:31:54.908Z,13.38
2022-10-12T01:34:29.166Z,13.39
2022-10-12T01:37:28.050Z,13.38
2022-10-12T01:39:59.952Z,13.38
2022-10-12T01:42:32.606Z,13.35
2022-10-12T01:45:04.853Z,13.34
2022-10-12T01:47:34.160Z,13.34
2022-10-12T01:50:06.617Z,13.32
2022-10-12T01:52:57.028Z,13.30
2022-10-12T01:55:38.774Z,13.28
2022-10-12T01:58:12.421Z,13.25
2022-10-12T02:01:06.990Z,13.23
2022-10-12T02:03:35.088Z,13.20
2022-10-12T02:06:08.479Z,13.19
2022-10-12T02:08:39.622Z,13.16
2022-10-12T02:11:16.704Z,13.13
2022-10-12T02:14:11.237Z,13.11
2022-10-12T02:16:53.284Z,13.09
2022-10-12T02:19:26.810Z,13.04
2022-10-12T02:21:58.117Z,13.02
2022-10-12T02:24:28.112Z,13.00
2022-10-12T02:26:57.080Z,12.98
2022-10-12T02:29:31.361Z,12.96
2022-10-12T02:32:06.143Z,12.93
2022-10-12T02:34:50.714Z,12.90
2022-10-12T02:37:47.191Z,12.91
2022-10-12T02:40:33.303Z,12.84
2022-10-12T02:43:11.038Z,12.82
2022-10-12T02:45:43.925Z,12.82
2022-10-12T02:48:20.534Z,12.82
2022-10-12T02:50:52.035Z,12.83
2022-10-12T02:53:21.591Z,12.84
2022-10-12T02:55:52.073Z,12.85
2022-10-12T02:58:20.600Z,12.85
2022-10-12T03:00:49.053Z,12.87
2022-10-12T03:03:17.559Z,12.85
2022-10-12T03:05:46.249Z,12.84
2022-10-12T03:08:14.100Z,12.84
2022-10-12T03:10:42.182Z,12.85
2022-10-12T03:13:10.364Z,12.84
2022-10-12T03:15:38.431Z,12.86
2022-10-12T03:18:06.394Z,12.85
2022-10-12T03:20:34.576Z,12.84
2022-10-12T03:23:02.704Z,12.84
2022-10-12T03:25:30.876Z,12.83
2022-10-12T03:27:59.989Z,12.80
2022-10-12T03:30:27.658Z,12.79
2022-10-12T03:32:55.544Z,12.78
2022-10-12T03:35:23.719Z,12.77
2022-10-12T03:37:51.613Z,12.77
2022-10-12T03:40:19.647Z,12.76
2022-10-12T03:42:47.514Z,12.76
2022-10-12T03:45:15.280Z,12.77
2022-10-12T03:47:43.077Z,12.78
2022-10-12T03:50:11.011Z,12.83
2022-10-12T03:52:38.795Z,12.84
2022-10-12T03:55:07.302Z,12.84
2022-10-12T03:57:35.259Z,12.82
2022-10-12T04:00:04.324Z,12.82
2022-10-12T04:02:39.949Z,12.86
2022-10-12T04:05:08.519Z,12.84
2022-10-12T04:07:36.975Z,12.81
2022-10-12T04:10:06.005Z,12.78
2022-10-12T04:12:34.102Z,12.78
2022-10-12T04:15:01.959Z,12.77
2022-10-12T04:17:29.670Z,12.77
2022-10-12T04:19:57.486Z,12.76
2022-10-12T04:22:25.557Z,12.72
2022-10-12T04:24:53.487Z,12.70
2022-10-12T04:27:21.611Z,12.66
2022-10-12T04:29:49.775Z,12.63
2022-10-12T04:32:17.605Z,12.62
2022-10-12T04:34:45.567Z,12.63
2022-10-12T04:37:13.470Z,12.64
2022-10-12T04:39:41.326Z,12.62
2022-10-12T04:42:09.203Z,12.61
2022-10-12T04:44:37.058Z,12.58
2022-10-12T04:47:05.038Z,12.57
2022-10-12T04:49:32.801Z,12.57
2022-10-12T04:52:00.494Z,12.57
2022-10-12T04:54:28.431Z,12.57
2022-10-12T04:56:56.164Z,12.56
2022-10-12T04:59:24.165Z,12.56
2022-10-12T05:01:52.221Z,12.56
2022-10-12T05:04:20.514Z,12.54
2022-10-12T05:06:48.487Z,12.53
2022-10-12T05:09:17.240Z,12.53
2022-10-12T05:11:45.442Z,12.53
2022-10-12T05:14:13.390Z,12.52
2022-10-12T05:16:41.278Z,12.52
2022-10-12T05:19:09.452Z,12.52
2022-10-12T05:21:37.829Z,12.52
2022-10-12T05:24:07.087Z,12.50
2022-10-12T05:26:34.914Z,12.50
2022-10-12T05:29:02.914Z,12.51
2022-10-12T05:31:30.939Z,12.52
2022-10-12T05:33:58.795Z,12.50
2022-10-12T05:36:26.973Z,12.49
2022-10-12T05:38:54.732Z,12.50
2022-10-12T05:41:22.733Z,12.51
2022-10-12T05:43:50.769Z,12.53
2022-10-12T05:46:18.741Z,12.54
2022-10-12T05:48:46.708Z,12.53
2022-10-12T05:51:14.453Z,12.54
2022-10-12T05:53:42.850Z,12.53
2022-10-12T05:56:10.818Z,12.52
2022-10-12T05:58:38.750Z,12.53
2022-10-12T06:01:07.653Z,12.56
2022-10-12T06:03:36.056Z,12.54
2022-10-12T06:06:06.543Z,12.52
2022-10-12T06:08:35.269Z,12.52
2022-10-12T06:11:03.796Z,12.52
2022-10-12T06:13:31.620Z,12.52
2022-10-12T06:15:59.482Z,12.52
2022-10-12T06:18:27.398Z,12.52
2022-10-12T06:23:43.868Z,12.53
2022-10-12T06:26:16.527Z,12.55
2022-10-12T06:28:44.476Z,12.57
2022-10-12T06:31:12.894Z,12.60
2022-10-12T06:33:40.963Z,12.60
2022-10-12T06:36:08.934Z,12.61
2022-10-12T06:38:37.008Z,12.64
2022-10-12T06:41:05.142Z,12.70
2022-10-12T06:43:33.554Z,12.74
2022-10-12T06:46:01.963Z,12.74
2022-10-12T06:48:30.720Z,12.77
2022-10-12T06:50:58.556Z,12.80
2022-10-12T06:53:28.961Z,12.82
2022-10-12T06:55:56.932Z,12.85
2022-10-12T06:58:25.155Z,12.85
2022-10-12T07:00:53.717Z,12.89
2022-10-12T07:03:21.655Z,12.90
2022-10-12T07:05:49.534Z,12.89
2022-10-12T07:08:17.860Z,12.94
2022-10-12T07:10:45.672Z,13.00
2022-10-12T07:13:13.580Z,13.05
2022-10-12T07:15:41.554Z,13.10
2022-10-12T07:18:09.242Z,13.14
2022-10-12T07:20:40.057Z,13.19
2022-10-12T07:23:08.322Z,13.24
2022-10-12T07:25:36.009Z,13.30
2022-10-12T07:28:06.157Z,13.39
2022-10-12T07:30:38.190Z,13.42
2022-10-12T07:33:06.342Z,13.48
2022-10-12T07:35:34.456Z,13.50
2022-10-12T07:38:02.993Z,13.53
2022-10-12T07:40:31.473Z,13.55
2022-10-12T07:43:15.209Z,13.58
2022-10-12T07:45:45.231Z,13.61
2022-10-12T07:48:13.127Z,13.64
2022-10-12T07:50:40.962Z,13.70
2022-10-12T07:53:08.831Z,13.75
2022-10-12T07:55:36.798Z,13.82
2022-10-12T07:58:05.482Z,13.88
2022-10-12T08:00:33.346Z,13.95
2022-10-12T08:03:01.219Z,14.03
2022-10-12T08:05:29.042Z,14.09
2022-10-12T08:07:56.948Z,14.16
2022-10-12T08:10:24.811Z,14.19
2022-10-12T08:12:52.574Z,14.23
2022-10-12T08:15:20.614Z,14.24
2022-10-12T08:17:48.818Z,14.25
2022-10-12T08:20:16.596Z,14.24
2022-10-12T08:22:44.449Z,14.25
2022-10-12T08:25:12.828Z,14.29
2022-10-12T08:27:40.715Z,14.33
2022-10-12T08:30:09.583Z,14.35
2022-10-12T08:32:37.521Z,14.39
2022-10-12T08:35:06.029Z,14.43
2022-10-12T08:37:33.883Z,14.47
2022-10-12T08:40:03.481Z,14.51
2022-10-12T08:42:55.237Z,14.57
2022-10-12T08:45:34.676Z,14.65
2022-10-12T08:48:21.380Z,14.72
2022-10-12T08:54:05.707Z,14.80
2022-10-12T08:56:39.720Z,14.86
2022-10-12T08:59:17.041Z,14.92
2022-10-12T09:02:01.712Z,15.00
2022-10-12T09:04:51.645Z,15.06
2022-10-12T09:07:33.970Z,15.13
2022-10-12T09:10:11.142Z,15.18
2022-10-12T09:13:13.408Z,15.25
2022-10-12T09:15:56.982Z,15.29
2022-10-12T09:18:41.410Z,15.31
2022-10-12T09:21:17.454Z,15.34
2022-10-12T09:23:46.328Z,15.38
2022-10-12T09:26:31.977Z,15.42
2022-10-12T09:28:59.973Z,15.47
2022-10-12T09:31:51.151Z,15.58
2022-10-12T09:34:20.041Z,15.64
2022-10-12T09:36:48.008Z,15.67
2022-10-12T09:39:23.497Z,15.72
2022-10-12T09:41:55.069Z,15.79
2022-10-12T09:44:37.792Z,15.83
2022-10-12T09:47:29.550Z,15.86
2022-10-12T09:50:06.245Z,15.84
2022-10-12T09:52:37.118Z,15.85
2022-10-12T09:55:06.269Z,15.87
2022-10-12T09:57:37.935Z,15.89
2022-10-12T10:00:28.097Z,15.93
2022-10-12T10:02:57.190Z,15.94
2022-10-12T10:05:34.271Z,15.96
2022-10-12T10:08:14.448Z,15.98
2022-10-12T10:11:14.522Z,15.97
2022-10-12T10:13:52.416Z,15.93
2022-10-12T10:16:23.786Z,15.90
2022-10-12T10:18:54.501Z,15.88
2022-10-12T10:21:25.367Z,15.86
2022-10-12T10:23:53.056Z,15.86
2022-10-12T10:26:23.980Z,15.83
2022-10-12T10:29:16.558Z,15.82
2022-10-12T10:31:46.972Z,15.78
2022-10-12T10:34:17.979Z,15.75
2022-10-12T10:36:56.220Z,15.77
2022-10-12T10:39:28.556Z,15.79
2022-10-12T10:41:56.632Z,15.82
2022-10-12T10:44:27.377Z,15.85
2022-10-12T10:46:56.661Z,15.91
2022-10-12T10:49:36.407Z,15.94
2022-10-12T10:52:06.627Z,15.93
2022-10-12T10:54:38.791Z,15.95
2022-10-12T10:57:11.435Z,15.99
2022-10-12T11:00:14.195Z,15.99
2022-10-12T11:03:01.375Z,15.98
2022-10-12T11:05:44.894Z,15.98
2022-10-12T11:08:18.916Z,15.96
2022-10-12T11:11:08.903Z,15.94
2022-10-12T11:13:42.185Z,15.98
2022-10-12T11:16:28.489Z,15.99
2022-10-12T11:19:00.001Z,15.96
2022-10-12T11:21:39.076Z,15.94
2022-10-12T11:24:20.670Z,15.90
2022-10-12T11:26:57.359Z,15.90
2022-10-12T11:29:25.941Z,15.92
2022-10-12T11:32:03.389Z,15.93
2022-10-12T11:34:45.006Z,15.93
2022-10-12T11:37:20.411Z,15.92
2022-10-12T11:39:53.621Z,15.92
2022-10-12T11:42:43.601Z,15.99
2022-10-12T11:45:26.571Z,16.05
2022-10-12T11:48:00.716Z,16.06
2022-10-12T11:50:48.380Z,16.03
2022-10-12T11:53:40.719Z,16.03
2022-10-12T11:56:16.395Z,16.03
2022-10-12T11:59:00.571Z,16.05
2022-10-12T12:01:39.956Z,16.08
2022-10-12T12:04:41.024Z,16.11
2022-10-12T12:07:22.917Z,16.15
2022-10-12T12:09:51.971Z,16.14
2022-10-12T12:12:26.099Z,16.14
2022-10-12T12:14:53.875Z,16.14
2022-10-12T12:17:26.934Z,16.15
2022-10-12T12:20:01.998Z,16.17
2022-10-12T12:22:48.711Z,16.21
2022-10-12T12:25:20.670Z,16.23
2022-10-12T12:27:58.077Z,16.27
2022-10-12T12:30:39.330Z,16.33
2022-10-12T12:33:17.434Z,16.35
2022-10-12T12:36:05.021Z,16.37
2022-10-12T12:38:35.734Z,16.39
2022-10-12T12:41:06.329Z,16.38
2022-10-12T12:43:34.130Z,16.36
2022-10-12T12:46:03.423Z,16.36
2022-10-12T12:48:43.256Z,16.35
2022-10-12T12:51:18.142Z,16.32
2022-10-12T12:53:53.578Z,16.32
2022-10-12T12:57:02.538Z,16.33
2022-10-12T13:00:19.046Z,16.32
2022-10-12T13:02:54.701Z,16.36
2022-10-12T13:05:44.512Z,16.38
2022-10-12T13:08:33.677Z,16.39
2022-10-12T13:11:20.555Z,16.39
2022-10-12T13:14:07.055Z,16.38
2022-10-12T13:19:55.520Z,16.42
2022-10-12T13:22:31.876Z,16.44
2022-10-12T13:25:07.329Z,16.45
2022-10-12T13:27:47.330Z,16.48
2022-10-12T13:30:43.414Z,16.51
2022-10-12T13:33:15.371Z,16.51
2022-10-12T13:35:48.690Z,16.50
2022-10-12T13:38:29.022Z,16.50
2022-10-12T13:41:19.108Z,16.51
2022-10-12T13:43:58.133Z,16.51
2022-10-12T13:46:48.161Z,16.52
2022-10-12T13:49:18.444Z,16.55
2022-10-12T13:51:49.604Z,16.56
2022-10-12T13:54:22.369Z,16.53
2022-10-12T13:57:01.933Z,16.51
2022-10-12T13:59:36.662Z,16.52
2022-10-12T14:02:17.302Z,16.50
2022-10-12T14:04:45.175Z,16.51
2022-10-12T14:07:22.632Z,16.53
2022-10-12T14:09:57.322Z,16.52
2022-10-12T14:12:25.972Z,16.50
2022-10-12T14:14:54.589Z,16.48
2022-10-12T14:17:22.960Z,16.48
2022-10-12T14:19:55.506Z,16.48
2022-10-12T14:22:28.674Z,16.47
2022-10-12T14:25:15.377Z,16.45
2022-10-12T14:27:43.737Z,16.46
2022-10-12T14:30:24.583Z,16.46
2022-10-12T14:32:59.519Z,16.44
2022-10-12T14:35:29.764Z,16.43
2022-10-12T14:37:57.986Z,16.43
2022-10-12T14:40:30.929Z,16.42
2022-10-12T14:42:58.936Z,16.42
2022-10-12T14:45:27.008Z,16.41
2022-10-12T14:47:56.204Z,16.41
2022-10-12T14:50:24.010Z,16.38
2022-10-12T14:52:55.217Z,16.36
2022-10-12T14:55:29.648Z,16.36
2022-10-12T14:57:57.601Z,16.36
2022-10-12T15:00:31.698Z,16.35
2022-10-12T15:02:59.981Z,16.31
2022-10-12T15:05:31.762Z,16.30
2022-10-12T15:08:01.149Z,16.29
2022-10-12T15:10:30.355Z,16.27
2022-10-12T15:12:58.345Z,16.24
2022-10-12T15:15:34.885Z,16.22
2022-10-12T15:18:03.053Z,16.19
2022-10-12T15:20:32.396Z,16.15
2022-10-12T15:23:00.532Z,16.13
2022-10-12T15:25:36.224Z,16.10
2022-10-12T15:28:04.602Z,16.09
2022-10-12T15:30:33.397Z,16.08
2022-10-12T15:33:01.315Z,16.05
2022-10-12T15:35:33.965Z,16.04
2022-10-12T15:38:02.098Z,16.01
2022-10-12T15:40:33.618Z,15.98
2022-10-12T15:43:01.677Z,15.97
2022-10-12T15:45:36.040Z,15.93
2022-10-12T15:48:06.246Z,15.91
2022-10-12T15:50:52.655Z,15.90
2022-10-12T15:53:26.462Z,15.88
2022-10-12T15:55:55.784Z,15.86
2022-10-12T15:58:24.415Z,15.84
2022-10-12T16:00:52.897Z,15.81
2022-10-12T16:03:25.585Z,15.78
2022-10-12T16:05:54.888Z,15.73
2022-10-12T16:08:23.705Z,15.70
2022-10-12T16:10:51.641Z,15.70
2022-10-12T16:13:19.705Z,15.68
2022-10-12T16:15:47.653Z,15.65
2022-10-12T16:18:15.947Z,15.62
2022-10-12T16:20:49.617Z,15.59
2022-10-12T16:23:26.187Z,15.57
2022-10-12T16:25:55.207Z,15.54
2022-10-12T16:28:25.121Z,15.51
2022-10-12T16:30:53.808Z,15.49
2022-10-12T16:33:22.195Z,15.48
2022-10-12T16:35:50.263Z,15.48
2022-10-12T16:38:20.345Z,15.46
2022-10-12T16:40:50.229Z,15.44
2022-10-12T16:43:19.590Z,15.43
2022-10-12T16:45:55.578Z,15.40
2022-10-12T16:48:23.458Z,15.37
2022-10-12T16:50:51.194Z,15.36
2022-10-12T16:53:19.188Z,15.35
2022-10-12T16:55:47.395Z,15.35
2022-10-12T16:58:15.323Z,15.33
2022-10-12T17:00:43.719Z,15.31
2022-10-12T17:03:14.187Z,15.31
2022-10-12T17:05:42.675Z,15.29
2022-10-12T17:08:14.946Z,15.25
2022-10-12T17:10:44.352Z,15.24
2022-10-12T17:13:13.693Z,15.21
2022-10-12T17:15:42.844Z,15.20
2022-10-12T17:18:10.651Z,15.19
2022-10-12T17:20:38.379Z,15.17
2022-10-12T17:23:06.234Z,15.15
2022-10-12T17:25:33.930Z,15.14
2022-10-12T17:28:01.910Z,15.11
2022-10-12T17:30:29.662Z,15.11
2022-10-12T17:32:57.469Z,15.10
2022-10-12T17:35:25.345Z,15.10
2022-10-12T17:37:53.158Z,15.10
2022-10-12T17:40:21.198Z,15.10
2022-10-12T17:42:49.062Z,15.07
2022-10-12T17:45:17.038Z,15.07
2022-10-12T17:47:48.348Z,15.08
2022-10-12T17:50:16.117Z,15.07
2022-10-12T17:52:43.784Z,15.04
2022-10-12T17:55:24.313Z,15.02
2022-10-12T17:57:59.607Z,15.00
2022-10-12T18:00:27.884Z,15.00
2022-10-12T18:02:55.792Z,14.99
2022-10-12T18:05:24.058Z,15.00
2022-10-12T18:07:51.892Z,14.99
2022-10-12T18:10:22.390Z,14.96
2022-10-12T18:12:52.666Z,14.93
2022-10-12T18:15:23.075Z,14.93
2022-10-12T18:17:50.934Z,14.91
2022-10-12T18:20:19.109Z,14.88
2022-10-12T18:22:47.080Z,14.87
2022-10-12T18:25:15.760Z,14.87
2022-10-12T18:27:44.042Z,14.85
2022-10-12T18:30:12.465Z,14.81
2022-10-12T18:32:40.384Z,14.81
2022-10-12T18:35:10.026Z,14.83
2022-10-12T18:37:37.856Z,14.82
2022-10-12T18:40:06.340Z,14.80
2022-10-12T18:42:34.203Z,14.80
2022-10-12T18:45:01.986Z,14.80
2022-10-12T18:47:29.657Z,14.78
2022-10-12T18:49:57.698Z,14.76
2022-10-12T18:52:25.465Z,14.74
2022-10-12T18:54:53.757Z,14.74
2022-10-12T18:57:21.626Z,14.73
2022-10-12T18:59:52.847Z,14.71
2022-10-12T19:02:24.784Z,14.68
2022-10-12T19:04:52.984Z,14.65
2022-10-12T19:07:20.952Z,14.60
2022-10-12T19:09:48.921Z,14.56
2022-10-12T19:12:19.476Z,14.54
2022-10-12T19:14:48.826Z,14.51
2022-10-12T19:17:16.680Z,14.48
2022-10-12T19:19:44.608Z,14.48
2022-10-12T19:22:12.451Z,14.48
2022-10-12T19:24:40.522Z,14.43
2022-10-12T19:27:08.490Z,14.39
2022-10-12T19:29:37.080Z,14.33
2022-10-12T19:32:05.348Z,14.31
2022-10-12T19:34:33.145Z,14.33
2022-10-12T19:37:01.186Z,14.33
2022-10-12T19:39:29.359Z,14.32
2022-10-12T19:41:57.844Z,14.33
2022-10-12T19:44:25.809Z,14.35
2022-10-12T19:46:53.704Z,14.36
2022-10-12T19:49:21.779Z,14.36
2022-10-12T19:51:49.614Z,14.36
2022-10-12T19:54:17.332Z,14.37
2022-10-12T19:56:46.344Z,14.36
2022-10-12T19:59:14.229Z,14.35
2022-10-12T20:01:42.506Z,14.35
2022-10-12T20:04:12.011Z,14.33
2022-10-12T20:06:40.799Z,14.31
2022-10-12T20:09:09.845Z,14.28
2022-10-12T20:11:38.891Z,14.28
2022-10-12T20:14:07.190Z,14.28
2022-10-12T20:16:36.980Z,14.27
2022-10-12T20:19:07.318Z,14.26
2022-10-12T20:21:36.783Z,14.24
2022-10-12T20:24:07.922Z,14.20
2022-10-12T20:26:36.017Z,14.17
2022-10-12T20:29:03.992Z,14.16
2022-10-12T20:31:31.743Z,14.15
2022-10-12T20:33:59.495Z,14.14
2022-10-12T20:36:29.616Z,14.13
2022-10-12T20:38:58.549Z,14.12
2022-10-12T20:41:28.143Z,14.10
2022-10-12T20:44:00.970Z,14.10
2022-10-12T20:46:29.960Z,14.09
2022-10-12T20:49:01.079Z,14.09
2022-10-12T20:51:44.683Z,14.09
2022-10-12T20:54:19.205Z,14.08
2022-10-12T20:56:49.670Z,14.06
2022-10-12T20:59:19.124Z,14.03
2022-10-12T21:01:47.925Z,14.02
2022-10-12T21:04:15.792Z,13.99
2022-10-12T21:06:44.064Z,13.98
2022-10-12T21:09:14.570Z,13.98
2022-10-12T21:11:43.792Z,13.98
2022-10-12T21:14:13.157Z,13.96
2022-10-12T21:16:41.247Z,13.96
2022-10-12T21:19:13.592Z,13.95
2022-10-12T21:21:41.566Z,13.94
2022-10-12T21:24:10.598Z,13.92
2022-10-12T21:26:38.972Z,13.91
2022-10-12T21:29:07.247Z,13.90
2022-10-12T21:31:35.318Z,13.89
2022-10-12T21:34:05.744Z,13.88
2022-10-12T21:36:36.541Z,13.87
2022-10-12T21:39:12.014Z,13.85
2022-10-12T21:41:40.258Z,13.83
2022-10-12T21:44:08.780Z,13.81
2022-10-12T21:46:36.932Z,13.80
2022-10-12T21:49:07.962Z,13.80
2022-10-12T21:51:37.502Z,13.79
2022-10-12T21:54:07.422Z,13.78
2022-10-12T21:56:36.404Z,13.77
2022-10-12T21:59:05.596Z,13.76
2022-10-12T22:01:46.395Z,13.76
2022-10-12T22:04:16.937Z,13.75
2022-10-12T22:06:44.765Z,13.74
2022-10-12T22:09:16.920Z,13.73
2022-10-12T22:11:46.690Z,13.71
2022-10-12T22:14:17.989Z,13.70
2022-10-12T22:16:46.469Z,13.70
2022-10-12T22:19:19.148Z,13.72
2022-10-12T22:21:49.373Z,13.74
2022-10-12T22:24:18.669Z,13.73
2022-10-12T22:26:46.827Z,13.73
2022-10-12T22:29:14.658Z,13.72
2022-10-12T22:31:44.620Z,13.71
2022-10-12T22:34:13.106Z,13.70
2022-10-12T22:36:41.080Z,13.69
2022-10-12T22:39:09.248Z,13.68
2022-10-12T22:41:37.112Z,13.69
2022-10-12T22:44:04.918Z,13.69
2022-10-12T22:46:32.945Z,13.69
2022-10-12T22:49:03.481Z,13.68
2022-10-12T22:51:33.934Z,13.67
2022-10-12T22:54:03.368Z,13.68
2022-10-12T22:56:32.299Z,13.66
2022-10-12T22:59:02.827Z,13.67
2022-10-12T23:01:30.591Z,13.66
2022-10-12T23:03:58.677Z,13.65
2022-10-12T23:06:26.476Z,13.64
2022-10-12T23:08:54.596Z,13.62
2022-10-12T23:11:25.817Z,13.61
2022-10-12T23:13:55.006Z,13.61
2022-10-12T23:16:27.186Z,13.58
2022-10-12T23:19:01.116Z,13.57
2022-10-12T23:21:31.331Z,13.54
2022-10-12T23:24:00.539Z,13.50
2022-10-12T23:26:29.598Z,13.48
2022-10-12T23:28:58.053Z,13.46
2022-10-12T23:31:28.509Z,13.44
2022-10-12T23:34:01.854Z,13.40
2022-10-12T23:36:30.711Z,13.38
2022-10-12T23:39:04.271Z,13.37
2022-10-12T23:41:32.286Z,13.34
2022-10-12T23:44:00.156Z,13.31
2022-10-12T23:46:28.121Z,13.31
2022-10-12T23:48:57.812Z,13.28
2022-10-12T23:51:25.613Z,13.28
2022-10-12T23:53:54.179Z,13.28
2022-10-12T23:56:22.347Z,13.26
2022-10-12T23:58:50.223Z,13.22
